sensor_id;sensor_type;location;lat;lon;timestamp;P1;durP1;ratioP1;P2;durP2;ratioP2
35084;SDS011;21267;51.032;6.998;2023-05-10T00:01:38;18.80;;;13.80;;
35084;SDS011;21267;51.032;6.998;2023-05-10T00:04:07;20.27;;;14.80;;
35084;SDS011;21267;51.032;6.998;2023-05-10T00:06:34;21.23;;;14.85;;
35084;SDS011;21267;51.032;6.998;2023-05-10T00:09:01;21.63;;;14.30;;
35084;SDS011;21267;51.032;6.998;2023-05-10T00:11:28;21.93;;;15.87;;
35084;SDS011;21267;51.032;6.998;2023-05-10T00:13:55;23.70;;;17.50;;
35084;SDS011;21267;51.032;6.998;2023-05-10T00:16:22;21.15;;;16.92;;
35084;SDS011;21267;51.032;6.998;2023-05-10T00:18:48;23.47;;;17.00;;
35084;SDS011;21267;51.032;6.998;2023-05-10T00:21:15;22.33;;;16.20;;
35084;SDS011;21267;51.032;6.998;2023-05-10T00:23:46;24.42;;;18.23;;
35084;SDS011;21267;51.032;6.998;2023-05-10T00:26:12;25.77;;;17.70;;
35084;SDS011;21267;51.032;6.998;2023-05-10T00:28:40;26.83;;;18.73;;
35084;SDS011;21267;51.032;6.998;2023-05-10T00:31:06;25.63;;;18.27;;
35084;SDS011;21267;51.032;6.998;2023-05-10T00:33:33;29.45;;;20.63;;
35084;SDS011;21267;51.032;6.998;2023-05-10T00:36:00;28.77;;;18.42;;
35084;SDS011;21267;51.032;6.998;2023-05-10T00:38:26;29.00;;;19.10;;
35084;SDS011;21267;51.032;6.998;2023-05-10T00:40:53;30.40;;;20.30;;
35084;SDS011;21267;51.032;6.998;2023-05-10T00:43:21;28.50;;;19.00;;
35084;SDS011;21267;51.032;6.998;2023-05-10T00:45:47;29.35;;;20.58;;
35084;SDS011;21267;51.032;6.998;2023-05-10T00:48:15;27.48;;;18.92;;
35084;SDS011;21267;51.032;6.998;2023-05-10T00:50:41;27.70;;;19.10;;
35084;SDS011;21267;51.032;6.998;2023-05-10T00:53:09;28.10;;;20.65;;
35084;SDS011;21267;51.032;6.998;2023-05-10T00:55:36;26.88;;;19.75;;
35084;SDS011;21267;51.032;6.998;2023-05-10T00:58:04;28.42;;;19.45;;
35084;SDS011;21267;51.032;6.998;2023-05-10T01:00:32;25.30;;;18.17;;
35084;SDS011;21267;51.032;6.998;2023-05-10T01:02:59;26.80;;;18.35;;
35084;SDS011;21267;51.032;6.998;2023-05-10T01:05:27;28.63;;;18.98;;
35084;SDS011;21267;51.032;6.998;2023-05-10T01:07:54;28.55;;;20.25;;
35084;SDS011;21267;51.032;6.998;2023-05-10T01:10:20;28.40;;;18.42;;
35084;SDS011;21267;51.032;6.998;2023-05-10T01:12:47;30.30;;;21.53;;
35084;SDS011;21267;51.032;6.998;2023-05-10T01:15:14;29.10;;;18.98;;
35084;SDS011;21267;51.032;6.998;2023-05-10T01:17:42;28.23;;;19.88;;
35084;SDS011;21267;51.032;6.998;2023-05-10T01:20:13;28.50;;;19.63;;
35084;SDS011;21267;51.032;6.998;2023-05-10T01:28:51;24.88;;;16.67;;
35084;SDS011;21267;51.032;6.998;2023-05-10T01:34:33;25.70;;;17.52;;
35084;SDS011;21267;51.032;6.998;2023-05-10T01:37:06;21.88;;;15.15;;
35084;SDS011;21267;51.032;6.998;2023-05-10T01:42:21;21.42;;;15.48;;
35084;SDS011;21267;51.032;6.998;2023-05-10T01:45:00;17.98;;;12.75;;
35084;SDS011;21267;51.032;6.998;2023-05-10T01:50:17;19.42;;;13.98;;
35084;SDS011;21267;51.032;6.998;2023-05-10T01:52:56;17.73;;;13.50;;
35084;SDS011;21267;51.032;6.998;2023-05-10T01:55:29;20.15;;;14.07;;
35084;SDS011;21267;51.032;6.998;2023-05-10T01:58:03;19.80;;;13.98;;
35084;SDS011;21267;51.032;6.998;2023-05-10T02:00:33;19.55;;;14.13;;
35084;SDS011;21267;51.032;6.998;2023-05-10T02:03:04;22.30;;;14.35;;
35084;SDS011;21267;51.032;6.998;2023-05-10T02:05:33;19.17;;;14.32;;
35084;SDS011;21267;51.032;6.998;2023-05-10T02:08:08;20.73;;;14.65;;
35084;SDS011;21267;51.032;6.998;2023-05-10T02:10:36;23.25;;;15.60;;
35084;SDS011;21267;51.032;6.998;2023-05-10T02:13:07;20.52;;;14.82;;
35084;SDS011;21267;51.032;6.998;2023-05-10T02:15:35;21.60;;;16.17;;
35084;SDS011;21267;51.032;6.998;2023-05-10T02:18:03;17.95;;;14.07;;
35084;SDS011;21267;51.032;6.998;2023-05-10T02:20:32;20.10;;;13.23;;
35084;SDS011;21267;51.032;6.998;2023-05-10T02:22:59;11.60;;;8.77;;
35084;SDS011;21267;51.032;6.998;2023-05-10T02:25:28;13.10;;;8.20;;
35084;SDS011;21267;51.032;6.998;2023-05-10T02:30:24;12.45;;;9.60;;
35084;SDS011;21267;51.032;6.998;2023-05-10T02:32:51;11.35;;;8.98;;
35084;SDS011;21267;51.032;6.998;2023-05-10T02:35:19;10.43;;;8.52;;
35084;SDS011;21267;51.032;6.998;2023-05-10T02:37:46;11.90;;;8.50;;
35084;SDS011;21267;51.032;6.998;2023-05-10T02:40:14;11.90;;;9.20;;
35084;SDS011;21267;51.032;6.998;2023-05-10T02:42:44;17.38;;;10.63;;
35084;SDS011;21267;51.032;6.998;2023-05-10T02:45:15;16.02;;;10.55;;
35084;SDS011;21267;51.032;6.998;2023-05-10T02:47:47;12.95;;;9.68;;
35084;SDS011;21267;51.032;6.998;2023-05-10T02:50:14;12.10;;;10.63;;
35084;SDS011;21267;51.032;6.998;2023-05-10T02:52:49;16.15;;;11.55;;
35084;SDS011;21267;51.032;6.998;2023-05-10T02:55:25;11.65;;;10.27;;
35084;SDS011;21267;51.032;6.998;2023-05-10T02:57:59;17.38;;;11.27;;
35084;SDS011;21267;51.032;6.998;2023-05-10T03:00:28;17.75;;;12.10;;
35084;SDS011;21267;51.032;6.998;2023-05-10T03:02:55;27.95;;;20.60;;
35084;SDS011;21267;51.032;6.998;2023-05-10T03:05:22;18.47;;;14.43;;
35084;SDS011;21267;51.032;6.998;2023-05-10T03:07:49;20.70;;;16.25;;
35084;SDS011;21267;51.032;6.998;2023-05-10T03:10:17;20.40;;;16.05;;
35084;SDS011;21267;51.032;6.998;2023-05-10T03:16:01;18.77;;;13.93;;
35084;SDS011;21267;51.032;6.998;2023-05-10T03:18:37;14.85;;;12.25;;
35084;SDS011;21267;51.032;6.998;2023-05-10T03:21:08;15.55;;;12.65;;
35084;SDS011;21267;51.032;6.998;2023-05-10T03:23:50;16.17;;;12.20;;
35084;SDS011;21267;51.032;6.998;2023-05-10T03:26:20;13.77;;;11.43;;
35084;SDS011;21267;51.032;6.998;2023-05-10T03:28:52;13.73;;;12.25;;
35084;SDS011;21267;51.032;6.998;2023-05-10T03:31:20;12.95;;;11.13;;
35084;SDS011;21267;51.032;6.998;2023-05-10T03:33:47;14.43;;;12.93;;
35084;SDS011;21267;51.032;6.998;2023-05-10T03:36:15;16.35;;;12.38;;
35084;SDS011;21267;51.032;6.998;2023-05-10T03:38:43;11.85;;;10.65;;
35084;SDS011;21267;51.032;6.998;2023-05-10T03:41:09;14.65;;;12.13;;
35084;SDS011;21267;51.032;6.998;2023-05-10T03:43:36;14.60;;;12.30;;
35084;SDS011;21267;51.032;6.998;2023-05-10T03:46:04;16.20;;;11.95;;
35084;SDS011;21267;51.032;6.998;2023-05-10T03:48:33;14.85;;;12.23;;
35084;SDS011;21267;51.032;6.998;2023-05-10T03:51:01;18.42;;;12.45;;
35084;SDS011;21267;51.032;6.998;2023-05-10T03:53:28;17.40;;;13.43;;
35084;SDS011;21267;51.032;6.998;2023-05-10T03:55:55;15.35;;;12.07;;
35084;SDS011;21267;51.032;6.998;2023-05-10T03:58:21;15.07;;;12.23;;
35084;SDS011;21267;51.032;6.998;2023-05-10T04:00:48;17.60;;;13.23;;
35084;SDS011;21267;51.032;6.998;2023-05-10T04:03:15;16.80;;;12.50;;
35084;SDS011;21267;51.032;6.998;2023-05-10T04:05:42;15.43;;;13.52;;
35084;SDS011;21267;51.032;6.998;2023-05-10T04:08:09;14.53;;;13.00;;
35084;SDS011;21267;51.032;6.998;2023-05-10T04:10:36;17.25;;;13.32;;
35084;SDS011;21267;51.032;6.998;2023-05-10T04:13:03;14.65;;;12.55;;
35084;SDS011;21267;51.032;6.998;2023-05-10T04:15:30;16.65;;;13.40;;
35084;SDS011;21267;51.032;6.998;2023-05-10T04:17:57;16.35;;;13.23;;
35084;SDS011;21267;51.032;6.998;2023-05-10T04:20:24;17.90;;;14.70;;
35084;SDS011;21267;51.032;6.998;2023-05-10T04:22:50;19.10;;;14.52;;
35084;SDS011;21267;51.032;6.998;2023-05-10T04:25:17;21.37;;;14.67;;
35084;SDS011;21267;51.032;6.998;2023-05-10T04:27:44;17.65;;;15.40;;
35084;SDS011;21267;51.032;6.998;2023-05-10T04:30:11;17.77;;;14.02;;
35084;SDS011;21267;51.032;6.998;2023-05-10T04:32:38;20.33;;;15.67;;
35084;SDS011;21267;51.032;6.998;2023-05-10T04:35:05;20.58;;;16.17;;
35084;SDS011;21267;51.032;6.998;2023-05-10T04:37:32;22.45;;;17.63;;
35084;SDS011;21267;51.032;6.998;2023-05-10T04:40:03;22.55;;;17.02;;
35084;SDS011;21267;51.032;6.998;2023-05-10T04:44:57;27.38;;;19.15;;
35084;SDS011;21267;51.032;6.998;2023-05-10T04:47:24;22.17;;;17.30;;
35084;SDS011;21267;51.032;6.998;2023-05-10T04:49:51;22.48;;;17.88;;
35084;SDS011;21267;51.032;6.998;2023-05-10T04:52:17;24.30;;;16.83;;
35084;SDS011;21267;51.032;6.998;2023-05-10T04:54:44;20.63;;;17.20;;
35084;SDS011;21267;51.032;6.998;2023-05-10T04:57:12;21.02;;;17.63;;
35084;SDS011;21267;51.032;6.998;2023-05-10T04:59:39;30.60;;;21.30;;
35084;SDS011;21267;51.032;6.998;2023-05-10T05:02:05;27.90;;;21.65;;
35084;SDS011;21267;51.032;6.998;2023-05-10T05:04:35;27.25;;;18.77;;
35084;SDS011;21267;51.032;6.998;2023-05-10T05:07:02;23.90;;;19.90;;
35084;SDS011;21267;51.032;6.998;2023-05-10T05:09:29;22.70;;;17.48;;
35084;SDS011;21267;51.032;6.998;2023-05-10T05:11:58;26.80;;;18.30;;
35084;SDS011;21267;51.032;6.998;2023-05-10T05:14:25;24.95;;;20.38;;
35084;SDS011;21267;51.032;6.998;2023-05-10T05:16:55;24.85;;;18.77;;
35084;SDS011;21267;51.032;6.998;2023-05-10T05:19:23;24.63;;;19.73;;
35084;SDS011;21267;51.032;6.998;2023-05-10T05:21:50;26.17;;;20.70;;
35084;SDS011;21267;51.032;6.998;2023-05-10T05:24:16;26.15;;;20.15;;
35084;SDS011;21267;51.032;6.998;2023-05-10T05:26:43;19.77;;;16.55;;
35084;SDS011;21267;51.032;6.998;2023-05-10T05:29:10;20.02;;;13.80;;
35084;SDS011;21267;51.032;6.998;2023-05-10T05:31:37;17.98;;;15.23;;
35084;SDS011;21267;51.032;6.998;2023-05-10T05:34:03;20.17;;;15.52;;
35084;SDS011;21267;51.032;6.998;2023-05-10T05:36:31;23.43;;;17.27;;
35084;SDS011;21267;51.032;6.998;2023-05-10T05:38:58;21.10;;;16.23;;
35084;SDS011;21267;51.032;6.998;2023-05-10T05:41:25;20.17;;;16.00;;
35084;SDS011;21267;51.032;6.998;2023-05-10T05:43:52;22.40;;;18.05;;
35084;SDS011;21267;51.032;6.998;2023-05-10T05:46:19;22.77;;;16.70;;
35084;SDS011;21267;51.032;6.998;2023-05-10T05:48:46;21.40;;;17.20;;
35084;SDS011;21267;51.032;6.998;2023-05-10T05:51:13;18.95;;;15.98;;
35084;SDS011;21267;51.032;6.998;2023-05-10T05:53:39;21.65;;;16.55;;
35084;SDS011;21267;51.032;6.998;2023-05-10T05:56:06;20.05;;;16.15;;
35084;SDS011;21267;51.032;6.998;2023-05-10T05:58:34;22.88;;;16.50;;
35084;SDS011;21267;51.032;6.998;2023-05-10T06:01:01;22.33;;;16.58;;
35084;SDS011;21267;51.032;6.998;2023-05-10T06:03:28;17.30;;;12.37;;
35084;SDS011;21267;51.032;6.998;2023-05-10T06:05:55;20.87;;;15.53;;
35084;SDS011;21267;51.032;6.998;2023-05-10T06:08:22;22.77;;;15.48;;
35084;SDS011;21267;51.032;6.998;2023-05-10T06:10:49;27.40;;;16.07;;
35084;SDS011;21267;51.032;6.998;2023-05-10T06:13:15;24.07;;;16.53;;
35084;SDS011;21267;51.032;6.998;2023-05-10T06:15:42;21.00;;;14.90;;
35084;SDS011;21267;51.032;6.998;2023-05-10T06:18:09;24.00;;;16.73;;
35084;SDS011;21267;51.032;6.998;2023-05-10T06:20:36;21.58;;;15.75;;
35084;SDS011;21267;51.032;6.998;2023-05-10T06:23:03;23.58;;;16.77;;
35084;SDS011;21267;51.032;6.998;2023-05-10T06:25:30;24.60;;;17.60;;
35084;SDS011;21267;51.032;6.998;2023-05-10T06:27:56;34.50;;;27.05;;
35084;SDS011;21267;51.032;6.998;2023-05-10T06:33:48;30.92;;;20.52;;
35084;SDS011;21267;51.032;6.998;2023-05-10T06:36:15;26.75;;;17.63;;
35084;SDS011;21267;51.032;6.998;2023-05-10T06:38:42;21.17;;;15.93;;
35084;SDS011;21267;51.032;6.998;2023-05-10T06:41:09;20.73;;;14.27;;
35084;SDS011;21267;51.032;6.998;2023-05-10T06:43:36;22.77;;;14.25;;
35084;SDS011;21267;51.032;6.998;2023-05-10T06:46:06;23.10;;;15.45;;
35084;SDS011;21267;51.032;6.998;2023-05-10T06:48:33;23.58;;;16.25;;
35084;SDS011;21267;51.032;6.998;2023-05-10T06:51:00;24.60;;;18.15;;
35084;SDS011;21267;51.032;6.998;2023-05-10T06:53:27;19.13;;;14.53;;
35084;SDS011;21267;51.032;6.998;2023-05-10T06:55:54;23.17;;;15.07;;
35084;SDS011;21267;51.032;6.998;2023-05-10T06:58:20;28.10;;;19.23;;
35084;SDS011;21267;51.032;6.998;2023-05-10T07:00:47;23.25;;;15.23;;
35084;SDS011;21267;51.032;6.998;2023-05-10T07:03:14;25.30;;;15.33;;
35084;SDS011;21267;51.032;6.998;2023-05-10T07:05:41;28.03;;;17.33;;
35084;SDS011;21267;51.032;6.998;2023-05-10T07:08:08;26.63;;;18.30;;
35084;SDS011;21267;51.032;6.998;2023-05-10T07:10:35;25.65;;;15.93;;
35084;SDS011;21267;51.032;6.998;2023-05-10T07:13:02;30.53;;;19.60;;
35084;SDS011;21267;51.032;6.998;2023-05-10T07:15:30;27.98;;;18.02;;
35084;SDS011;21267;51.032;6.998;2023-05-10T07:17:57;32.92;;;20.95;;
35084;SDS011;21267;51.032;6.998;2023-05-10T07:20:24;33.30;;;20.90;;
35084;SDS011;21267;51.032;6.998;2023-05-10T07:22:51;29.07;;;22.03;;
35084;SDS011;21267;51.032;6.998;2023-05-10T07:25:18;29.67;;;19.17;;
35084;SDS011;21267;51.032;6.998;2023-05-10T07:27:44;33.55;;;19.92;;
35084;SDS011;21267;51.032;6.998;2023-05-10T07:30:11;32.22;;;21.50;;
35084;SDS011;21267;51.032;6.998;2023-05-10T07:32:42;30.48;;;19.92;;
35084;SDS011;21267;51.032;6.998;2023-05-10T07:35:09;29.20;;;19.95;;
35084;SDS011;21267;51.032;6.998;2023-05-10T07:37:36;31.97;;;19.17;;
35084;SDS011;21267;51.032;6.998;2023-05-10T07:40:02;33.50;;;21.20;;
35084;SDS011;21267;51.032;6.998;2023-05-10T07:42:30;33.03;;;21.17;;
35084;SDS011;21267;51.032;6.998;2023-05-10T07:44:57;35.72;;;21.42;;
35084;SDS011;21267;51.032;6.998;2023-05-10T07:47:24;33.23;;;21.93;;
35084;SDS011;21267;51.032;6.998;2023-05-10T07:49:51;35.67;;;22.00;;
35084;SDS011;21267;51.032;6.998;2023-05-10T07:52:18;32.83;;;23.33;;
35084;SDS011;21267;51.032;6.998;2023-05-10T07:54:47;39.83;;;23.00;;
35084;SDS011;21267;51.032;6.998;2023-05-10T07:57:15;36.08;;;22.42;;
35084;SDS011;21267;51.032;6.998;2023-05-10T07:59:43;31.33;;;22.33;;
35084;SDS011;21267;51.032;6.998;2023-05-10T08:02:11;32.13;;;22.10;;
35084;SDS011;21267;51.032;6.998;2023-05-10T08:04:38;36.30;;;22.20;;
35084;SDS011;21267;51.032;6.998;2023-05-10T08:07:05;37.73;;;25.93;;
35084;SDS011;21267;51.032;6.998;2023-05-10T08:09:32;34.40;;;27.02;;
35084;SDS011;21267;51.032;6.998;2023-05-10T08:11:59;29.52;;;21.20;;
35084;SDS011;21267;51.032;6.998;2023-05-10T08:14:27;23.47;;;18.77;;
35084;SDS011;21267;51.032;6.998;2023-05-10T08:16:55;29.35;;;19.73;;
35084;SDS011;21267;51.032;6.998;2023-05-10T08:19:22;29.50;;;21.55;;
35084;SDS011;21267;51.032;6.998;2023-05-10T08:21:50;29.02;;;19.88;;
35084;SDS011;21267;51.032;6.998;2023-05-10T08:24:17;24.60;;;16.77;;
35084;SDS011;21267;51.032;6.998;2023-05-10T08:26:44;28.47;;;18.40;;
35084;SDS011;21267;51.032;6.998;2023-05-10T08:29:11;24.05;;;18.33;;
35084;SDS011;21267;51.032;6.998;2023-05-10T08:31:38;26.07;;;19.33;;
35084;SDS011;21267;51.032;6.998;2023-05-10T08:34:05;22.73;;;17.43;;
35084;SDS011;21267;51.032;6.998;2023-05-10T08:36:31;22.90;;;14.23;;
35084;SDS011;21267;51.032;6.998;2023-05-10T08:38:58;25.33;;;17.20;;
35084;SDS011;21267;51.032;6.998;2023-05-10T08:41:25;22.63;;;18.17;;
35084;SDS011;21267;51.032;6.998;2023-05-10T08:43:53;22.65;;;15.98;;
35084;SDS011;21267;51.032;6.998;2023-05-10T08:46:21;22.80;;;15.60;;
35084;SDS011;21267;51.032;6.998;2023-05-10T08:48:50;22.40;;;14.02;;
35084;SDS011;21267;51.032;6.998;2023-05-10T08:51:18;25.02;;;14.68;;
35084;SDS011;21267;51.032;6.998;2023-05-10T08:53:48;28.08;;;18.05;;
35084;SDS011;21267;51.032;6.998;2023-05-10T08:56:15;27.23;;;17.35;;
35084;SDS011;21267;51.032;6.998;2023-05-10T08:58:44;27.83;;;19.45;;
35084;SDS011;21267;51.032;6.998;2023-05-10T09:01:11;28.67;;;19.63;;
35084;SDS011;21267;51.032;6.998;2023-05-10T09:03:40;27.38;;;19.90;;
35084;SDS011;21267;51.032;6.998;2023-05-10T09:06:07;32.72;;;22.98;;
35084;SDS011;21267;51.032;6.998;2023-05-10T09:08:34;24.20;;;18.10;;
35084;SDS011;21267;51.032;6.998;2023-05-10T09:11:03;26.13;;;17.80;;
35084;SDS011;21267;51.032;6.998;2023-05-10T09:13:30;31.53;;;21.10;;
35084;SDS011;21267;51.032;6.998;2023-05-10T09:15:57;29.17;;;19.70;;
35084;SDS011;21267;51.032;6.998;2023-05-10T09:18:38;30.88;;;21.00;;
35084;SDS011;21267;51.032;6.998;2023-05-10T09:21:05;33.90;;;22.67;;
35084;SDS011;21267;51.032;6.998;2023-05-10T09:23:32;32.17;;;21.15;;
35084;SDS011;21267;51.032;6.998;2023-05-10T09:26:03;30.73;;;19.40;;
35084;SDS011;21267;51.032;6.998;2023-05-10T09:28:33;25.73;;;15.82;;
35084;SDS011;21267;51.032;6.998;2023-05-10T09:31:04;30.80;;;21.45;;
35084;SDS011;21267;51.032;6.998;2023-05-10T09:33:41;32.57;;;21.53;;
35084;SDS011;21267;51.032;6.998;2023-05-10T09:36:10;35.50;;;20.58;;
35084;SDS011;21267;51.032;6.998;2023-05-10T09:41:21;32.70;;;20.17;;
35084;SDS011;21267;51.032;6.998;2023-05-10T09:43:54;34.97;;;23.10;;
35084;SDS011;21267;51.032;6.998;2023-05-10T09:46:22;35.15;;;22.08;;
35084;SDS011;21267;51.032;6.998;2023-05-10T09:48:50;39.38;;;24.77;;
35084;SDS011;21267;51.032;6.998;2023-05-10T09:51:24;32.43;;;22.37;;
35084;SDS011;21267;51.032;6.998;2023-05-10T09:54:08;33.17;;;18.80;;
35084;SDS011;21267;51.032;6.998;2023-05-10T09:56:37;25.30;;;15.60;;
35084;SDS011;21267;51.032;6.998;2023-05-10T09:59:06;27.67;;;17.13;;
35084;SDS011;21267;51.032;6.998;2023-05-10T10:01:36;27.60;;;15.40;;
35084;SDS011;21267;51.032;6.998;2023-05-10T10:04:06;33.60;;;21.13;;
35084;SDS011;21267;51.032;6.998;2023-05-10T10:06:35;29.30;;;19.65;;
35084;SDS011;21267;51.032;6.998;2023-05-10T10:09:04;33.15;;;22.60;;
35084;SDS011;21267;51.032;6.998;2023-05-10T10:11:34;34.97;;;22.50;;
35084;SDS011;21267;51.032;6.998;2023-05-10T10:14:02;32.13;;;21.08;;
35084;SDS011;21267;51.032;6.998;2023-05-10T10:16:30;31.65;;;22.58;;
35084;SDS011;21267;51.032;6.998;2023-05-10T10:18:58;29.05;;;19.58;;
35084;SDS011;21267;51.032;6.998;2023-05-10T10:21:25;27.60;;;20.15;;
35084;SDS011;21267;51.032;6.998;2023-05-10T10:23:53;29.45;;;20.50;;
35084;SDS011;21267;51.032;6.998;2023-05-10T10:26:20;28.27;;;19.58;;
35084;SDS011;21267;51.032;6.998;2023-05-10T10:29:00;32.67;;;20.52;;
35084;SDS011;21267;51.032;6.998;2023-05-10T10:31:46;23.85;;;18.25;;
35084;SDS011;21267;51.032;6.998;2023-05-10T10:36:57;20.48;;;15.20;;
35084;SDS011;21267;51.032;6.998;2023-05-10T10:39:29;26.00;;;18.23;;
35084;SDS011;21267;51.032;6.998;2023-05-10T10:41:57;24.58;;;18.33;;
35084;SDS011;21267;51.032;6.998;2023-05-10T10:52:30;19.13;;;15.45;;
35084;SDS011;21267;51.032;6.998;2023-05-10T10:57:27;21.17;;;14.43;;
35084;SDS011;21267;51.032;6.998;2023-05-10T11:05:24;22.42;;;16.02;;
35084;SDS011;21267;51.032;6.998;2023-05-10T11:08:00;19.83;;;14.30;;
35084;SDS011;21267;51.032;6.998;2023-05-10T11:10:33;22.85;;;18.40;;
35084;SDS011;21267;51.032;6.998;2023-05-10T11:13:00;21.75;;;18.23;;
35084;SDS011;21267;51.032;6.998;2023-05-10T11:15:32;18.20;;;16.27;;
35084;SDS011;21267;51.032;6.998;2023-05-10T11:18:20;19.60;;;14.73;;
35084;SDS011;21267;51.032;6.998;2023-05-10T11:20:59;16.00;;;12.55;;
35084;SDS011;21267;51.032;6.998;2023-05-10T11:23:34;15.20;;;11.18;;
35084;SDS011;21267;51.032;6.998;2023-05-10T11:26:14;17.85;;;14.70;;
35084;SDS011;21267;51.032;6.998;2023-05-10T11:28:41;17.10;;;12.90;;
35084;SDS011;21267;51.032;6.998;2023-05-10T11:31:09;15.35;;;10.95;;
35084;SDS011;21267;51.032;6.998;2023-05-10T11:33:45;18.13;;;12.77;;
35084;SDS011;21267;51.032;6.998;2023-05-10T11:36:20;14.40;;;11.00;;
35084;SDS011;21267;51.032;6.998;2023-05-10T11:38:52;11.50;;;7.75;;
35084;SDS011;21267;51.032;6.998;2023-05-10T11:41:20;15.10;;;9.20;;
35084;SDS011;21267;51.032;6.998;2023-05-10T11:43:54;13.60;;;10.23;;
35084;SDS011;21267;51.032;6.998;2023-05-10T11:46:22;12.75;;;9.43;;
35084;SDS011;21267;51.032;6.998;2023-05-10T11:48:52;11.65;;;7.75;;
35084;SDS011;21267;51.032;6.998;2023-05-10T11:51:21;10.98;;;7.28;;
35084;SDS011;21267;51.032;6.998;2023-05-10T11:53:53;10.07;;;8.43;;
35084;SDS011;21267;51.032;6.998;2023-05-10T11:56:21;13.10;;;9.38;;
35084;SDS011;21267;51.032;6.998;2023-05-10T11:58:53;12.02;;;9.00;;
35084;SDS011;21267;51.032;6.998;2023-05-10T12:01:22;11.68;;;6.97;;
35084;SDS011;21267;51.032;6.998;2023-05-10T12:03:55;10.70;;;7.93;;
35084;SDS011;21267;51.032;6.998;2023-05-10T12:06:29;10.38;;;8.90;;
35084;SDS011;21267;51.032;6.998;2023-05-10T12:08:58;8.02;;;6.95;;
35084;SDS011;21267;51.032;6.998;2023-05-10T12:11:26;6.30;;;5.72;;
35084;SDS011;21267;51.032;6.998;2023-05-10T12:13:54;4.95;;;3.83;;
35084;SDS011;21267;51.032;6.998;2023-05-10T12:16:24;5.30;;;3.45;;
35084;SDS011;21267;51.032;6.998;2023-05-10T12:18:59;5.60;;;4.55;;
35084;SDS011;21267;51.032;6.998;2023-05-10T12:21:30;5.53;;;4.15;;
35084;SDS011;21267;51.032;6.998;2023-05-10T12:24:01;5.57;;;4.75;;
35084;SDS011;21267;51.032;6.998;2023-05-10T12:26:32;4.97;;;4.45;;
35084;SDS011;21267;51.032;6.998;2023-05-10T12:29:17;5.15;;;4.55;;
35084;SDS011;21267;51.032;6.998;2023-05-10T12:31:55;4.93;;;4.15;;
35084;SDS011;21267;51.032;6.998;2023-05-10T12:34:29;5.88;;;3.72;;
35084;SDS011;21267;51.032;6.998;2023-05-10T12:36:57;4.60;;;3.22;;
35084;SDS011;21267;51.032;6.998;2023-05-10T12:39:43;3.35;;;3.00;;
35084;SDS011;21267;51.032;6.998;2023-05-10T12:42:11;3.45;;;2.90;;
35084;SDS011;21267;51.032;6.998;2023-05-10T12:44:38;4.20;;;3.80;;
35084;SDS011;21267;51.032;6.998;2023-05-10T12:47:05;5.50;;;3.17;;
35084;SDS011;21267;51.032;6.998;2023-05-10T12:49:32;3.88;;;2.78;;
35084;SDS011;21267;51.032;6.998;2023-05-10T12:52:00;4.40;;;2.78;;
35084;SDS011;21267;51.032;6.998;2023-05-10T12:54:27;4.10;;;3.70;;
35084;SDS011;21267;51.032;6.998;2023-05-10T12:56:54;8.33;;;3.30;;
35084;SDS011;21267;51.032;6.998;2023-05-10T12:59:21;3.35;;;3.05;;
35084;SDS011;21267;51.032;6.998;2023-05-10T13:01:49;3.08;;;2.72;;
35084;SDS011;21267;51.032;6.998;2023-05-10T13:04:16;2.67;;;2.35;;
35084;SDS011;21267;51.032;6.998;2023-05-10T13:06:43;2.95;;;2.50;;
35084;SDS011;21267;51.032;6.998;2023-05-10T13:09:10;2.87;;;2.57;;
35084;SDS011;21267;51.032;6.998;2023-05-10T13:11:36;3.70;;;3.33;;
35084;SDS011;21267;51.032;6.998;2023-05-10T13:14:03;4.78;;;3.58;;
35084;SDS011;21267;51.032;6.998;2023-05-10T13:16:31;3.58;;;3.28;;
35084;SDS011;21267;51.032;6.998;2023-05-10T13:18:58;3.03;;;2.72;;
35084;SDS011;21267;51.032;6.998;2023-05-10T13:21:25;5.70;;;3.00;;
35084;SDS011;21267;51.032;6.998;2023-05-10T13:23:52;4.03;;;2.70;;
35084;SDS011;21267;51.032;6.998;2023-05-10T13:28:46;3.65;;;2.45;;
35084;SDS011;21267;51.032;6.998;2023-05-10T13:31:15;4.03;;;2.17;;
35084;SDS011;21267;51.032;6.998;2023-05-10T13:33:42;2.42;;;2.22;;
35084;SDS011;21267;51.032;6.998;2023-05-10T13:36:08;7.43;;;2.17;;
35084;SDS011;21267;51.032;6.998;2023-05-10T13:38:35;2.38;;;2.15;;
35084;SDS011;21267;51.032;6.998;2023-05-10T13:41:02;2.57;;;2.07;;
35084;SDS011;21267;51.032;6.998;2023-05-10T13:43:29;2.00;;;1.80;;
35084;SDS011;21267;51.032;6.998;2023-05-10T13:45:56;2.40;;;2.20;;
35084;SDS011;21267;51.032;6.998;2023-05-10T13:48:23;2.92;;;1.85;;
35084;SDS011;21267;51.032;6.998;2023-05-10T13:50:50;4.03;;;2.33;;
35084;SDS011;21267;51.032;6.998;2023-05-10T13:53:17;3.23;;;2.10;;
35084;SDS011;21267;51.032;6.998;2023-05-10T13:55:44;2.50;;;2.30;;
35084;SDS011;21267;51.032;6.998;2023-05-10T13:58:11;2.47;;;2.28;;
35084;SDS011;21267;51.032;6.998;2023-05-10T14:00:38;2.43;;;2.23;;
35084;SDS011;21267;51.032;6.998;2023-05-10T14:03:05;5.57;;;2.58;;
35084;SDS011;21267;51.032;6.998;2023-05-10T14:05:33;2.75;;;2.17;;
35084;SDS011;21267;51.032;6.998;2023-05-10T14:10:27;2.72;;;1.80;;
35084;SDS011;21267;51.032;6.998;2023-05-10T14:12:54;4.85;;;2.35;;
35084;SDS011;21267;51.032;6.998;2023-05-10T14:15:22;6.18;;;2.58;;
35084;SDS011;21267;51.032;6.998;2023-05-10T14:17:49;5.43;;;3.55;;
35084;SDS011;21267;51.032;6.998;2023-05-10T14:20:15;3.88;;;3.20;;
35084;SDS011;21267;51.032;6.998;2023-05-10T14:22:42;4.00;;;3.08;;
35084;SDS011;21267;51.032;6.998;2023-05-10T14:25:09;3.33;;;3.00;;
35084;SDS011;21267;51.032;6.998;2023-05-10T14:27:36;4.75;;;2.80;;
35084;SDS011;21267;51.032;6.998;2023-05-10T14:30:03;2.87;;;2.40;;
35084;SDS011;21267;51.032;6.998;2023-05-10T14:32:34;5.63;;;3.78;;
35084;SDS011;21267;51.032;6.998;2023-05-10T14:35:03;8.38;;;7.53;;
35084;SDS011;21267;51.032;6.998;2023-05-10T14:37:30;6.70;;;6.10;;
35084;SDS011;21267;51.032;6.998;2023-05-10T14:39:57;5.30;;;4.15;;
35084;SDS011;21267;51.032;6.998;2023-05-10T14:42:24;10.18;;;9.25;;
35084;SDS011;21267;51.032;6.998;2023-05-10T14:44:51;14.82;;;11.25;;
35084;SDS011;21267;51.032;6.998;2023-05-10T14:47:18;11.43;;;9.33;;
35084;SDS011;21267;51.032;6.998;2023-05-10T14:49:45;11.90;;;9.50;;
35084;SDS011;21267;51.032;6.998;2023-05-10T14:52:11;11.23;;;10.00;;
35084;SDS011;21267;51.032;6.998;2023-05-10T14:54:38;9.70;;;8.77;;
35084;SDS011;21267;51.032;6.998;2023-05-10T14:57:06;12.82;;;7.95;;
35084;SDS011;21267;51.032;6.998;2023-05-10T14:59:33;10.77;;;9.07;;
35084;SDS011;21267;51.032;6.998;2023-05-10T15:02:01;9.60;;;7.82;;
35084;SDS011;21267;51.032;6.998;2023-05-10T15:04:28;10.68;;;7.50;;
35084;SDS011;21267;51.032;6.998;2023-05-10T15:06:55;12.15;;;7.88;;
35084;SDS011;21267;51.032;6.998;2023-05-10T15:09:25;11.20;;;9.55;;
35084;SDS011;21267;51.032;6.998;2023-05-10T15:11:54;11.15;;;8.20;;
35084;SDS011;21267;51.032;6.998;2023-05-10T15:16:48;10.18;;;8.57;;
35084;SDS011;21267;51.032;6.998;2023-05-10T15:19:15;11.00;;;8.63;;
35084;SDS011;21267;51.032;6.998;2023-05-10T15:21:42;9.23;;;8.33;;
35084;SDS011;21267;51.032;6.998;2023-05-10T15:24:10;10.07;;;8.07;;
35084;SDS011;21267;51.032;6.998;2023-05-10T15:26:37;10.30;;;8.50;;
35084;SDS011;21267;51.032;6.998;2023-05-10T15:29:04;11.67;;;8.53;;
35084;SDS011;21267;51.032;6.998;2023-05-10T15:31:31;11.53;;;8.50;;